createdAt,value
2018-12-29T00:00:10.741Z,46.00
2018-12-29T00:05:03.096Z,42.07
2018-12-29T00:09:56.206Z,47.43
2018-12-29T00:14:54.936Z,52.83
2018-12-29T00:19:43.068Z,48.17
2018-12-29T00:24:35.585Z,44.43
2018-12-29T00:29:28.414Z,47.63
2018-12-29T00:34:21.205Z,47.53
2018-12-29T00:49:08.224Z,46.83
2018-12-29T00:54:00.348Z,48.60
2018-12-29T00:58:52.537Z,40.70
2018-12-29T01:03:44.687Z,39.87
2018-12-29T01:08:36.746Z,42.90
2018-12-29T01:13:29.056Z,40.70
2018-12-29T01:18:21.265Z,41.07
2018-12-29T01:23:13.506Z,42.37
2018-12-29T01:28:05.653Z,47.17
2018-12-29T01:32:59.597Z,43.03
2018-12-29T01:37:52.138Z,47.00
2018-12-29T01:42:45.299Z,47.10
2018-12-29T01:47:37.887Z,53.20
2018-12-29T01:52:31.600Z,47.70
2018-12-29T01:57:24.878Z,46.73
2018-12-29T02:02:17.955Z,47.77
2018-12-29T02:07:11.722Z,49.87
2018-12-29T02:12:05.111Z,44.33
2018-12-29T02:16:58.688Z,45.97
2018-12-29T02:21:55.016Z,47.53
2018-12-29T02:26:48.365Z,43.97
2018-12-29T02:31:42.918Z,43.10
2018-12-29T02:36:36.497Z,46.57
2018-12-29T02:41:33.654Z,42.87
2018-12-29T02:46:27.725Z,44.50
2018-12-29T02:51:21.761Z,45.10
2018-12-29T02:56:15.832Z,47.37
2018-12-29T03:01:10.386Z,49.97
2018-12-29T03:06:02.739Z,43.60
2018-12-29T03:10:56.677Z,48.00
2018-12-29T03:15:50.804Z,46.53
2018-12-29T03:20:43.473Z,49.33
2018-12-29T03:25:36.062Z,50.67
2018-12-29T03:30:28.945Z,52.13
2018-12-29T03:35:21.536Z,51.93
2018-12-29T03:40:17.035Z,54.77
2018-12-29T03:45:09.634Z,56.77
2018-12-29T03:50:02.228Z,55.20
2018-12-29T03:54:55.139Z,50.60
2018-12-29T03:59:47.612Z,51.13
2018-12-29T04:04:40.169Z,52.50
2018-12-29T04:14:31.689Z,53.03
2018-12-29T04:19:25.048Z,49.40
2018-12-29T04:24:17.804Z,49.83
2018-12-29T04:29:10.259Z,52.57
2018-12-29T04:34:02.833Z,52.67
2018-12-29T04:38:55.767Z,51.67
2018-12-29T04:43:48.544Z,49.10
2018-12-29T04:48:42.874Z,44.97
2018-12-29T04:53:35.642Z,48.87
2018-12-29T04:58:32.017Z,51.77
2018-12-29T05:03:24.903Z,50.93
2018-12-29T05:08:17.775Z,51.30
2018-12-29T05:13:14.626Z,52.37
2018-12-29T05:18:11.534Z,55.20
2018-12-29T05:23:04.618Z,52.30
2018-12-29T05:27:57.267Z,51.00
2018-12-29T05:32:50.006Z,58.20
2018-12-29T05:37:45.461Z,52.83
2018-12-29T05:42:40.071Z,56.37
2018-12-29T05:47:34.099Z,58.10
2018-12-29T05:52:31.829Z,63.30
2018-12-29T05:57:30.204Z,65.33
2018-12-29T06:02:22.692Z,63.30
2018-12-29T06:07:15.319Z,58.33
2018-12-29T06:12:08.157Z,61.90
2018-12-29T06:17:00.982Z,62.07
2018-12-29T06:21:53.600Z,63.70
2018-12-29T06:26:50.786Z,68.00
2018-12-29T06:31:43.607Z,65.70
2018-12-29T06:36:41.625Z,70.57
2018-12-29T06:41:34.718Z,79.33
2018-12-29T06:46:27.203Z,83.60
2018-12-29T06:51:20.100Z,183.70
2018-12-29T06:56:12.594Z,87.10
2018-12-29T07:01:05.194Z,67.83
2018-12-29T07:05:57.885Z,131.00
2018-12-29T07:10:50.529Z,108.27
2018-12-29T07:15:43.234Z,67.30
2018-12-29T07:20:35.866Z,67.23
2018-12-29T07:25:28.131Z,65.83
2018-12-29T07:30:21.883Z,57.33
2018-12-29T07:35:14.455Z,61.27
2018-12-29T07:40:07.217Z,65.30
2018-12-29T07:45:02.263Z,66.93
2018-12-29T07:54:56.147Z,62.60
2018-12-29T08:04:48.239Z,67.83
2018-12-29T08:09:40.828Z,65.70
2018-12-29T08:14:33.800Z,61.43
2018-12-29T08:19:26.221Z,74.60
2018-12-29T08:24:18.926Z,73.00
2018-12-29T08:29:11.280Z,75.00
2018-12-29T08:34:04.789Z,71.53
2018-12-29T08:38:57.504Z,64.10
2018-12-29T08:43:49.969Z,74.70
2018-12-29T08:48:42.335Z,70.43
2018-12-29T08:53:34.904Z,71.63
2018-12-29T08:58:27.310Z,66.97
2018-12-29T09:03:20.522Z,73.83
2018-12-29T09:08:12.487Z,60.13
2018-12-29T09:13:05.618Z,62.07
2018-12-29T09:17:58.009Z,56.10
2018-12-29T09:22:56.625Z,61.13
2018-12-29T09:39:22.020Z,56.20
2018-12-29T09:56:24.578Z,56.03
2018-12-29T10:01:17.235Z,54.40
2018-12-29T10:06:09.550Z,53.33
2018-12-29T10:11:01.870Z,52.13
2018-12-29T10:15:54.030Z,55.20
2018-12-29T10:20:46.471Z,52.77
2018-12-29T10:25:38.605Z,55.47
2018-12-29T10:30:30.757Z,52.33
2018-12-29T10:35:23.113Z,51.57
2018-12-29T10:40:15.439Z,47.20
2018-12-29T10:45:07.746Z,43.50
2018-12-29T10:49:59.861Z,47.77
2018-12-29T10:54:52.113Z,45.27
2018-12-29T10:59:44.306Z,40.80
2018-12-29T11:04:36.507Z,43.87
2018-12-29T11:09:28.478Z,45.47
2018-12-29T11:14:20.669Z,46.90
2018-12-29T11:19:12.576Z,45.23
2018-12-29T11:24:05.105Z,41.87
2018-12-29T11:28:57.422Z,49.27
2018-12-29T11:33:49.462Z,43.23
2018-12-29T11:38:41.593Z,45.77
2018-12-29T11:43:33.638Z,46.00
2018-12-29T11:48:25.941Z,54.83
2018-12-29T11:53:18.187Z,45.17
2018-12-29T11:58:10.737Z,43.73
2018-12-29T12:03:03.177Z,47.50
2018-12-29T12:07:55.562Z,43.43
2018-12-29T12:12:48.044Z,43.47
2018-12-29T12:17:40.370Z,44.50
2018-12-29T12:22:35.584Z,46.30
2018-12-29T12:27:33.770Z,54.93
2018-12-29T12:32:26.452Z,58.47
2018-12-29T12:37:20.364Z,49.50
2018-12-29T12:42:27.315Z,51.73
2018-12-29T12:47:18.943Z,51.80
2018-12-29T12:52:11.457Z,46.73
2018-12-29T12:57:03.652Z,47.77
2018-12-29T13:01:56.110Z,44.63
2018-12-29T13:06:50.186Z,45.07
2018-12-29T13:11:42.237Z,48.90
2018-12-29T13:16:34.746Z,44.67
2018-12-29T13:21:27.278Z,47.20
2018-12-29T13:26:19.628Z,49.43
2018-12-29T13:31:12.132Z,52.57
2018-12-29T13:36:06.712Z,47.87
2018-12-29T13:40:59.319Z,47.73
2018-12-29T13:45:51.388Z,50.70
2018-12-29T13:50:43.466Z,54.13
2018-12-29T13:55:36.049Z,47.80
2018-12-29T14:00:28.251Z,46.20
2018-12-29T14:05:20.324Z,47.43
2018-12-29T14:10:12.849Z,48.03
2018-12-29T14:15:04.976Z,65.70
2018-12-29T14:19:57.241Z,50.13
2018-12-29T14:24:49.834Z,48.93
2018-12-29T14:29:42.158Z,45.40
2018-12-29T14:34:34.778Z,52.20
2018-12-29T14:39:27.556Z,72.47
2018-12-29T14:44:20.115Z,52.23
2018-12-29T14:49:12.683Z,45.57
2018-12-29T14:54:05.030Z,42.17
2018-12-29T14:58:57.406Z,46.73
2018-12-29T15:03:49.899Z,43.73
2018-12-29T15:08:41.985Z,49.37
2018-12-29T15:13:34.733Z,49.73
2018-12-29T15:18:27.105Z,51.47
2018-12-29T15:23:19.620Z,46.73
2018-12-29T15:28:12.350Z,53.73
2018-12-29T15:33:04.834Z,50.60
2018-12-29T15:37:58.523Z,59.03
2018-12-29T15:42:50.958Z,53.67
2018-12-29T15:47:43.553Z,55.33
2018-12-29T15:52:35.827Z,65.80
2018-12-29T15:57:29.798Z,55.87
2018-12-29T16:02:21.870Z,56.90
2018-12-29T16:07:14.213Z,51.37
2018-12-29T16:12:06.313Z,45.37
2018-12-29T16:16:58.948Z,52.33
2018-12-29T16:21:51.038Z,47.43
2018-12-29T16:26:43.879Z,54.90
2018-12-29T16:31:36.391Z,48.70
2018-12-29T16:36:30.088Z,53.90
2018-12-29T16:41:22.509Z,53.13
2018-12-29T16:46:17.131Z,51.63
2018-12-29T16:51:11.515Z,49.83
2018-12-29T16:56:04.240Z,46.07
2018-12-29T17:00:56.571Z,50.97
2018-12-29T17:05:48.774Z,48.93
2018-12-29T17:10:41.347Z,44.17
2018-12-29T17:15:33.623Z,45.97
2018-12-29T17:20:26.423Z,45.40
2018-12-29T17:25:19.032Z,54.17
2018-12-29T17:30:14.747Z,46.07
2018-12-29T17:35:08.950Z,44.07
2018-12-29T17:40:02.190Z,45.57
2018-12-29T17:45:14.027Z,44.90
2018-12-29T17:50:15.220Z,45.80
2018-12-29T17:55:09.409Z,43.50
2018-12-29T18:00:02.011Z,45.77
2018-12-29T18:04:54.417Z,41.70
2018-12-29T18:09:47.934Z,44.63
2018-12-29T18:14:40.149Z,44.23
2018-12-29T18:19:34.256Z,44.63
2018-12-29T18:24:28.416Z,44.43
2018-12-29T18:29:22.929Z,49.77
2018-12-29T18:34:15.814Z,51.90
2018-12-29T18:39:08.314Z,50.57
2018-12-29T18:44:01.098Z,48.73
2018-12-29T18:48:55.172Z,62.40
2018-12-29T18:53:47.610Z,52.30
2018-12-29T18:58:40.262Z,61.50
2018-12-29T19:03:34.007Z,50.37
2018-12-29T19:08:27.043Z,51.97
2018-12-29T19:13:19.420Z,54.13
2018-12-29T19:18:16.764Z,55.90
2018-12-29T19:23:11.693Z,46.43
2018-12-29T19:28:03.738Z,47.27
2018-12-29T19:32:59.734Z,49.10
2018-12-29T19:37:53.469Z,52.90
2018-12-29T19:42:49.116Z,47.03
2018-12-29T19:47:41.950Z,47.63
2018-12-29T19:52:34.588Z,50.87
2018-12-29T19:57:28.759Z,43.30
2018-12-29T20:02:21.400Z,48.37
2018-12-29T20:07:14.304Z,46.53
2018-12-29T20:12:14.380Z,44.33
2018-12-29T20:17:08.780Z,42.73
2018-12-29T20:22:00.937Z,37.23
2018-12-29T20:26:54.665Z,38.70
2018-12-29T20:31:47.307Z,32.33
2018-12-29T20:36:39.947Z,28.07
2018-12-29T20:41:32.724Z,28.63
2018-12-29T20:46:26.342Z,27.77
2018-12-29T20:51:19.104Z,24.73
2018-12-29T20:56:12.046Z,24.60
2018-12-29T21:01:04.169Z,29.50
2018-12-29T21:05:56.405Z,28.23
2018-12-29T21:10:49.421Z,28.70
2018-12-29T21:15:42.141Z,28.43
2018-12-29T21:20:35.951Z,30.33
2018-12-29T21:25:27.849Z,26.33
2018-12-29T21:30:20.671Z,26.90
2018-12-29T21:35:13.150Z,31.37
2018-12-29T21:40:06.045Z,27.80
2018-12-29T21:45:22.787Z,26.43
2018-12-29T21:50:25.015Z,27.37
2018-12-29T22:00:09.688Z,25.37
2018-12-29T22:05:01.622Z,25.13
2018-12-29T22:09:53.937Z,25.50
2018-12-29T22:14:46.152Z,23.63
2018-12-29T22:19:38.620Z,50.47
2018-12-29T22:24:31.169Z,22.03
2018-12-29T22:29:26.948Z,23.53
2018-12-29T22:34:19.593Z,21.40
2018-12-29T22:39:14.337Z,21.53
2018-12-29T22:44:07.990Z,23.53
2018-12-29T22:49:00.162Z,24.63
2018-12-29T22:53:52.646Z,24.80
2018-12-29T22:58:45.892Z,22.63
2018-12-29T23:03:38.774Z,22.77
2018-12-29T23:08:33.445Z,24.17
2018-12-29T23:13:26.263Z,26.53
2018-12-29T23:18:19.917Z,25.13
2018-12-29T23:23:13.273Z,24.67
2018-12-29T23:28:05.553Z,25.33
2018-12-29T23:32:58.139Z,25.20
2018-12-29T23:37:50.562Z,27.07
2018-12-29T23:42:42.854Z,29.37
2018-12-29T23:47:35.470Z,34.17
2018-12-29T23:52:27.767Z,33.47
2018-12-29T23:57:20.321Z,32.57
